Botosani, Romania
Current Conditions -  °F | °C
As of 3:00 PM on Tuesday 21 Oct 2014 (Local Time) from LRSV Reporting Station
Light Rain Light Rain  
Wind Chill: 52°   Ceiling: 4500
Heat Index: 52°   Visibility: 5mi
Dew Point: 52°   Wind: 7mph
Humidity: 100%   Direction: 190°S
Pressure: 29.83"   Gusts: NA
Location:  47.75°N, 26.67°E
Report Text: LRSV 211200Z 19006KT 180V260 8000 -RA BKN045 11/11 Q1010
Loading
Personal Weather Stations






























Interactive Weather Map
Tropical Storm Tracking
New forecast layout! Learn more

10-Day Weather Forecast

Advertisements
Track Severe Weather on mobile